createdAt,value
2018-03-16T00:02:02.529Z,18.60
2018-03-16T00:04:30.165Z,20.73
2018-03-16T00:06:57.829Z,22.73
2018-03-16T00:09:25.505Z,16.93
2018-03-16T00:11:53.133Z,18.00
2018-03-16T00:14:20.735Z,20.40
2018-03-16T00:16:48.374Z,18.47
2018-03-16T00:19:15.979Z,23.10
2018-03-16T00:21:43.603Z,15.27
2018-03-16T00:24:11.207Z,21.77
2018-03-16T00:26:39.017Z,18.00
2018-03-16T00:29:06.471Z,22.67
2018-03-16T00:31:34.856Z,20.83
2018-03-16T00:34:02.469Z,18.77
2018-03-16T00:36:30.495Z,24.03
2018-03-16T00:38:58.217Z,21.35
2018-03-16T00:41:26.028Z,20.85
2018-03-16T00:43:53.789Z,17.90
2018-03-16T00:46:21.456Z,17.50
2018-03-16T00:48:49.116Z,21.00
2018-03-16T00:51:16.719Z,16.70
2018-03-16T00:53:44.352Z,28.50
2018-03-16T00:56:11.991Z,21.60
2018-03-16T00:58:39.643Z,21.07
2018-03-16T01:01:07.248Z,19.13
2018-03-16T01:03:34.857Z,18.83
2018-03-16T01:06:02.483Z,20.00
2018-03-16T01:08:30.113Z,17.90
2018-03-16T01:10:57.752Z,16.97
2018-03-16T01:13:25.427Z,15.43
2018-03-16T01:15:53.153Z,17.85
2018-03-16T01:18:20.759Z,15.27
2018-03-16T01:20:48.392Z,16.77
2018-03-16T01:23:16.085Z,18.30
2018-03-16T01:25:43.846Z,17.95
2018-03-16T01:28:11.465Z,15.43
2018-03-16T01:30:39.096Z,12.87
2018-03-16T01:33:06.735Z,12.80
2018-03-16T01:35:34.368Z,26.50
2018-03-16T01:38:01.987Z,15.33
2018-03-16T01:40:29.627Z,15.13
2018-03-16T01:42:57.241Z,13.40
2018-03-16T01:45:25.457Z,16.37
2018-03-16T01:47:53.223Z,14.73
2018-03-16T01:50:20.988Z,14.15
2018-03-16T01:53:00.541Z,14.87
2018-03-16T01:55:28.228Z,9.02
2018-03-16T01:57:55.849Z,16.00
2018-03-16T02:00:23.568Z,17.85
2018-03-16T02:02:51.281Z,14.50
2018-03-16T02:05:19.047Z,12.70
2018-03-16T02:07:46.751Z,19.10
2018-03-16T02:10:14.475Z,12.85
2018-03-16T02:12:42.244Z,14.40
2018-03-16T02:15:10.009Z,13.85
2018-03-16T02:17:37.676Z,15.63
2018-03-16T02:20:05.440Z,17.00
2018-03-16T02:22:33.129Z,11.75
2018-03-16T02:25:00.868Z,12.43
2018-03-16T02:27:28.631Z,13.55
2018-03-16T02:29:56.297Z,17.57
2018-03-16T02:32:23.990Z,25.67
2018-03-16T02:34:51.748Z,12.27
2018-03-16T02:37:19.440Z,15.15
2018-03-16T02:39:47.261Z,12.80
2018-03-16T02:42:15.018Z,14.30
2018-03-16T02:44:42.733Z,12.07
2018-03-16T02:47:10.429Z,25.30
2018-03-16T02:49:38.136Z,9.60
2018-03-16T02:52:05.826Z,12.95
2018-03-16T02:54:33.570Z,10.60
2018-03-16T02:57:01.260Z,14.27
2018-03-16T02:59:28.944Z,11.95
2018-03-16T03:01:56.730Z,10.60
2018-03-16T03:04:24.417Z,7.20
2018-03-16T03:06:52.130Z,13.70
2018-03-16T03:09:19.752Z,8.93
2018-03-16T03:11:47.456Z,13.38
2018-03-16T03:14:15.132Z,8.73
2018-03-16T03:16:42.808Z,12.50
2018-03-16T03:19:10.509Z,9.27
2018-03-16T03:21:38.237Z,10.17
2018-03-16T03:24:06.108Z,10.90
2018-03-16T03:26:33.877Z,15.48
2018-03-16T03:29:01.568Z,14.70
2018-03-16T03:31:29.257Z,9.50
2018-03-16T03:33:56.968Z,11.07
2018-03-16T03:36:24.727Z,10.10
2018-03-16T03:38:52.501Z,12.00
2018-03-16T03:41:20.266Z,9.68
2018-03-16T03:43:48.024Z,8.13
2018-03-16T03:46:15.700Z,9.32
2018-03-16T03:48:43.458Z,9.15
2018-03-16T03:51:11.152Z,9.98
2018-03-16T03:53:38.859Z,9.18
2018-03-16T03:56:06.545Z,12.10
2018-03-16T03:58:34.269Z,6.90
2018-03-16T04:01:01.977Z,8.30
2018-03-16T04:03:29.660Z,7.95
2018-03-16T04:05:57.452Z,8.43
2018-03-16T04:08:25.133Z,10.52
2018-03-16T04:10:52.938Z,6.55
2018-03-16T04:13:20.697Z,8.52
2018-03-16T04:15:48.461Z,8.15
2018-03-16T04:18:16.145Z,8.93
2018-03-16T04:20:43.891Z,9.73
2018-03-16T04:23:11.656Z,10.90
2018-03-16T04:25:39.364Z,8.40
2018-03-16T04:28:07.056Z,9.30
2018-03-16T04:30:34.764Z,10.10
2018-03-16T04:33:02.517Z,12.52
2018-03-16T04:35:30.209Z,7.95
2018-03-16T04:37:57.940Z,6.55
2018-03-16T04:40:25.704Z,6.28
2018-03-16T04:42:53.408Z,6.32
2018-03-16T04:45:21.091Z,6.40
2018-03-16T04:47:48.905Z,6.35
2018-03-16T04:50:16.588Z,6.03
2018-03-16T04:52:44.296Z,6.65
2018-03-16T04:55:11.980Z,10.00
2018-03-16T04:57:39.752Z,7.60
2018-03-16T05:00:07.437Z,5.35
2018-03-16T05:02:35.189Z,6.15
2018-03-16T05:05:02.876Z,6.65
2018-03-16T05:07:30.717Z,7.62
2018-03-16T05:09:58.484Z,21.15
2018-03-16T05:12:26.257Z,7.47
2018-03-16T05:14:54.009Z,5.93
2018-03-16T05:17:21.776Z,7.03
2018-03-16T05:19:49.496Z,15.23
2018-03-16T05:22:17.182Z,4.95
2018-03-16T05:24:44.893Z,6.32
2018-03-16T05:27:12.580Z,10.05
2018-03-16T05:29:40.306Z,5.15
2018-03-16T05:32:08.025Z,5.87
2018-03-16T05:34:35.829Z,7.35
2018-03-16T05:37:03.513Z,4.30
2018-03-16T05:39:31.256Z,6.05
2018-03-16T05:41:58.941Z,4.55
2018-03-16T05:44:26.681Z,6.32
2018-03-16T05:46:54.448Z,5.65
2018-03-16T05:49:22.145Z,5.78
2018-03-16T05:51:49.858Z,4.12
2018-03-16T05:54:17.535Z,5.80
2018-03-16T05:56:45.245Z,5.00
2018-03-16T05:59:12.923Z,5.40
2018-03-16T06:01:40.668Z,5.93
2018-03-16T06:04:08.400Z,6.12
2018-03-16T06:06:36.108Z,7.22
2018-03-16T06:09:03.792Z,8.73
2018-03-16T06:11:31.591Z,5.28
2018-03-16T06:13:59.301Z,6.78
2018-03-16T06:16:27.025Z,5.28
2018-03-16T06:18:54.793Z,4.60
2018-03-16T06:21:22.476Z,5.35
2018-03-16T06:23:50.184Z,9.25
2018-03-16T06:26:17.974Z,5.85
2018-03-16T06:28:45.748Z,5.12
2018-03-16T06:31:13.428Z,4.97
2018-03-16T06:33:41.140Z,5.87
2018-03-16T06:36:08.836Z,5.03
2018-03-16T06:38:36.493Z,6.57
2018-03-16T06:41:04.183Z,6.78
2018-03-16T06:43:31.892Z,8.00
2018-03-16T06:45:59.589Z,5.60
2018-03-16T06:48:27.353Z,5.90
2018-03-16T06:50:54.956Z,6.30
2018-03-16T06:53:22.645Z,8.30
2018-03-16T06:55:50.448Z,3.65
2018-03-16T06:58:18.169Z,4.35
2018-03-16T07:00:45.804Z,11.37
2018-03-16T07:03:13.537Z,4.93
2018-03-16T07:05:41.301Z,5.15
2018-03-16T07:08:08.992Z,6.15
2018-03-16T07:10:36.827Z,6.10
2018-03-16T07:13:04.509Z,5.53
2018-03-16T07:15:36.021Z,5.05
2018-03-16T07:18:03.796Z,7.47
2018-03-16T07:20:31.505Z,7.60
2018-03-16T07:22:59.189Z,5.80
2018-03-16T07:25:26.913Z,6.47
2018-03-16T07:27:54.677Z,13.98
2018-03-16T07:30:22.279Z,6.10
2018-03-16T07:32:50.061Z,5.62
2018-03-16T07:35:17.716Z,15.07
2018-03-16T07:37:45.419Z,4.28
2018-03-16T07:40:13.193Z,5.07
2018-03-16T07:42:40.900Z,7.07
2018-03-16T07:45:08.616Z,7.47
2018-03-16T07:47:36.332Z,4.43
2018-03-16T07:50:03.949Z,5.43
2018-03-16T07:52:31.577Z,7.27
2018-03-16T07:54:59.277Z,5.37
2018-03-16T07:57:26.986Z,5.87
2018-03-16T07:59:54.596Z,5.80
2018-03-16T08:02:22.268Z,3.10
2018-03-16T08:04:49.954Z,8.50
2018-03-16T08:07:17.693Z,7.87
2018-03-16T08:09:45.347Z,5.70
2018-03-16T08:12:13.017Z,5.53
2018-03-16T08:14:40.623Z,5.33
2018-03-16T08:17:08.248Z,2.83
2018-03-16T08:19:35.979Z,5.73
2018-03-16T08:22:03.625Z,6.07
2018-03-16T08:24:31.263Z,5.87
2018-03-16T08:26:58.870Z,6.10
2018-03-16T08:29:26.568Z,5.07
2018-03-16T08:31:54.173Z,5.13
2018-03-16T08:34:21.873Z,5.20
2018-03-16T08:36:49.549Z,9.20
2018-03-16T08:39:17.181Z,10.13
2018-03-16T08:41:44.798Z,3.70
2018-03-16T08:44:12.533Z,5.27
2018-03-16T08:46:40.197Z,4.03
2018-03-16T08:49:07.857Z,3.63
2018-03-16T08:51:35.478Z,5.13
2018-03-16T08:54:03.120Z,4.77
2018-03-16T08:56:30.729Z,4.57
2018-03-16T08:58:58.618Z,3.97
2018-03-16T09:01:26.272Z,5.43
2018-03-16T09:03:53.873Z,3.33
2018-03-16T09:06:21.701Z,4.60
2018-03-16T09:08:49.304Z,4.70
2018-03-16T09:11:17.122Z,3.50
2018-03-16T09:13:44.800Z,3.87
2018-03-16T09:16:12.455Z,4.50
2018-03-16T09:18:40.073Z,11.93
2018-03-16T09:21:07.889Z,7.90
2018-03-16T09:23:35.548Z,5.90
2018-03-16T09:26:03.309Z,5.90
2018-03-16T09:28:30.981Z,3.70
2018-03-16T09:30:58.980Z,3.50
2018-03-16T09:33:26.601Z,4.33
2018-03-16T09:35:54.275Z,6.67
2018-03-16T09:38:21.941Z,3.80
2018-03-16T09:40:49.545Z,3.20
2018-03-16T09:43:17.176Z,6.90
2018-03-16T09:45:44.782Z,3.87
2018-03-16T09:48:12.412Z,5.37
2018-03-16T09:50:40.088Z,4.60
2018-03-16T09:53:07.674Z,4.00
2018-03-16T09:55:45.340Z,3.97
2018-03-16T09:58:13.073Z,2.70
2018-03-16T10:00:40.732Z,5.33
2018-03-16T10:03:08.397Z,7.20
2018-03-16T10:05:35.996Z,3.80
2018-03-16T10:08:03.724Z,3.17
2018-03-16T10:10:31.341Z,3.53
2018-03-16T10:12:59.047Z,4.03
2018-03-16T10:15:26.669Z,5.20
2018-03-16T10:17:54.383Z,3.47
2018-03-16T10:20:22.040Z,7.43
2018-03-16T10:22:49.649Z,7.40
2018-03-16T10:25:17.278Z,3.53
2018-03-16T10:27:44.927Z,3.47
2018-03-16T10:30:12.598Z,2.83
2018-03-16T10:32:40.208Z,2.70
2018-03-16T10:35:07.841Z,3.60
2018-03-16T10:37:35.455Z,2.97
2018-03-16T10:40:03.140Z,3.90
2018-03-16T10:42:30.748Z,4.13
2018-03-16T10:44:58.465Z,3.13
2018-03-16T10:47:26.064Z,3.80
2018-03-16T10:49:53.688Z,3.50
2018-03-16T10:52:21.451Z,3.37
2018-03-16T10:54:49.124Z,3.37
2018-03-16T10:57:16.790Z,6.50
2018-03-16T10:59:44.441Z,3.00
2018-03-16T11:02:17.741Z,3.03
2018-03-16T11:04:45.358Z,6.70
2018-03-16T11:07:19.616Z,4.30
2018-03-16T11:09:47.224Z,2.50
2018-03-16T11:12:16.385Z,3.73
2018-03-16T11:14:44.041Z,3.50
2018-03-16T11:17:11.730Z,10.67
2018-03-16T11:19:39.377Z,3.93
2018-03-16T11:22:07.024Z,2.63
2018-03-16T11:24:34.636Z,4.20
2018-03-16T11:27:02.262Z,3.60
2018-03-16T11:29:29.863Z,1.97
2018-03-16T11:31:57.494Z,2.57
2018-03-16T11:34:25.213Z,2.47
2018-03-16T11:36:52.920Z,2.10
2018-03-16T11:39:20.520Z,4.27
2018-03-16T11:41:48.150Z,2.00
2018-03-16T11:44:15.800Z,2.97
2018-03-16T11:46:43.456Z,1.83
2018-03-16T11:49:11.115Z,2.77
2018-03-16T11:51:38.785Z,6.13
2018-03-16T11:54:06.413Z,5.17
2018-03-16T11:56:34.025Z,1.33
2018-03-16T11:59:01.674Z,4.10
2018-03-16T12:01:29.280Z,2.80
2018-03-16T12:03:57.001Z,2.37
2018-03-16T12:06:24.609Z,2.40
2018-03-16T12:08:52.325Z,3.17
2018-03-16T12:11:19.992Z,3.73
2018-03-16T12:13:47.625Z,12.87
2018-03-16T12:16:15.236Z,2.73
2018-03-16T12:18:42.866Z,4.23
2018-03-16T12:21:10.469Z,3.07
2018-03-16T12:23:38.096Z,6.53
2018-03-16T12:26:05.717Z,2.00
2018-03-16T12:28:49.476Z,3.40
2018-03-16T12:31:00.978Z,7.67
2018-03-16T12:33:28.608Z,2.20
2018-03-16T12:35:56.314Z,4.03
2018-03-16T12:38:23.968Z,2.13
2018-03-16T12:40:51.638Z,6.30
2018-03-16T12:43:19.301Z,2.30
2018-03-16T12:45:46.924Z,2.70
2018-03-16T12:48:14.528Z,2.87
2018-03-16T12:50:42.203Z,2.20
2018-03-16T12:53:09.808Z,7.53
2018-03-16T12:55:37.517Z,4.03
2018-03-16T12:58:05.129Z,2.27
2018-03-16T13:00:32.944Z,5.57
2018-03-16T13:03:00.546Z,3.17
2018-03-16T13:05:28.277Z,2.53
2018-03-16T13:07:55.880Z,3.40
2018-03-16T13:10:23.603Z,2.93
2018-03-16T13:12:51.205Z,2.87
2018-03-16T13:15:18.832Z,2.17
2018-03-16T13:17:46.441Z,5.90
2018-03-16T13:20:14.148Z,3.13
2018-03-16T13:22:41.757Z,2.97
2018-03-16T13:25:09.469Z,3.90
2018-03-16T13:27:37.077Z,2.10
2018-03-16T13:30:04.716Z,2.10
2018-03-16T13:32:32.464Z,3.10
2018-03-16T13:35:00.133Z,4.60
2018-03-16T13:37:27.782Z,2.83
2018-03-16T13:39:55.454Z,4.03
2018-03-16T13:42:23.089Z,6.60
2018-03-16T13:44:50.693Z,2.60
2018-03-16T13:47:18.349Z,3.50
2018-03-16T13:49:46.013Z,17.63
2018-03-16T13:52:13.672Z,4.10
2018-03-16T13:54:41.272Z,8.17
2018-03-16T13:57:08.905Z,14.27
2018-03-16T13:59:36.519Z,24.43
2018-03-16T14:02:04.144Z,4.90
2018-03-16T14:04:31.752Z,3.43
2018-03-16T14:06:59.452Z,16.07
2018-03-16T14:09:27.057Z,3.63
2018-03-16T14:11:54.684Z,3.27
2018-03-16T14:14:22.337Z,5.90
2018-03-16T14:16:49.992Z,17.33
2018-03-16T14:19:17.608Z,2.93
2018-03-16T14:21:45.325Z,3.97
2018-03-16T14:24:12.934Z,3.90
2018-03-16T14:26:40.616Z,4.50
2018-03-16T14:29:08.262Z,3.27
2018-03-16T14:31:35.982Z,9.20
2018-03-16T14:34:03.604Z,3.40
2018-03-16T14:36:31.313Z,2.70
2018-03-16T14:38:58.971Z,5.40
2018-03-16T14:41:26.637Z,4.83
2018-03-16T14:43:54.267Z,3.17
2018-03-16T14:46:21.961Z,4.27
2018-03-16T14:48:49.616Z,5.70
2018-03-16T14:51:17.289Z,2.17
2018-03-16T14:53:44.913Z,2.90
2018-03-16T14:56:12.605Z,2.70
2018-03-16T14:58:40.229Z,4.30
2018-03-16T15:01:07.937Z,2.87
2018-03-16T15:03:35.565Z,4.27
2018-03-16T15:06:03.176Z,4.83
2018-03-16T15:08:30.893Z,4.40
2018-03-16T15:10:58.524Z,6.20
2018-03-16T15:13:26.125Z,2.83
2018-03-16T15:15:53.837Z,3.67
2018-03-16T15:18:21.534Z,8.70
2018-03-16T15:20:49.345Z,2.80
2018-03-16T15:23:17.721Z,3.00
2018-03-16T15:25:45.918Z,4.20
2018-03-16T15:28:13.597Z,2.80
2018-03-16T15:30:41.335Z,3.53
2018-03-16T15:33:09.216Z,4.35
2018-03-16T15:35:36.965Z,4.03
2018-03-16T15:38:04.660Z,3.85
2018-03-16T15:40:32.392Z,5.18
2018-03-16T15:43:00.167Z,11.23
2018-03-16T15:45:28.725Z,2.60
2018-03-16T15:47:56.937Z,7.12
2018-03-16T15:50:24.657Z,2.78
2018-03-16T15:52:52.337Z,2.62
2018-03-16T15:55:20.028Z,10.63
2018-03-16T15:57:47.768Z,3.20
2018-03-16T16:00:15.453Z,3.17
2018-03-16T16:02:43.211Z,2.25
2018-03-16T16:05:10.977Z,2.12
2018-03-16T16:07:38.720Z,6.50
2018-03-16T16:10:06.498Z,4.03
2018-03-16T16:12:34.362Z,3.72
2018-03-16T16:15:02.165Z,13.20
2018-03-16T16:17:29.869Z,1.80
2018-03-16T16:19:57.664Z,1.65
2018-03-16T16:22:25.443Z,7.00
2018-03-16T16:24:53.201Z,3.95
2018-03-16T16:27:20.976Z,2.12
2018-03-16T16:29:48.740Z,11.60
2018-03-16T16:32:16.502Z,5.10
2018-03-16T16:34:44.196Z,11.65
2018-03-16T16:37:11.929Z,5.07
2018-03-16T16:39:39.621Z,4.37
2018-03-16T16:42:07.350Z,2.37
2018-03-16T16:44:35.034Z,1.58
2018-03-16T16:47:02.883Z,2.50
2018-03-16T16:49:30.597Z,5.65
2018-03-16T16:51:58.285Z,2.45
2018-03-16T16:54:26.180Z,2.25
2018-03-16T16:56:53.953Z,1.12
2018-03-16T16:59:21.660Z,4.50
2018-03-16T17:01:49.385Z,2.37
2018-03-16T17:04:17.103Z,7.20
2018-03-16T17:06:44.792Z,1.62
2018-03-16T17:09:12.578Z,16.45
2018-03-16T17:11:40.437Z,2.85
2018-03-16T17:14:08.203Z,2.28
2018-03-16T17:16:35.925Z,1.87
2018-03-16T17:19:03.734Z,2.35
2018-03-16T17:21:31.438Z,4.30
2018-03-16T17:23:59.140Z,3.33
2018-03-16T17:26:26.825Z,2.08
2018-03-16T17:28:54.540Z,5.00
2018-03-16T17:31:22.833Z,5.07
2018-03-16T17:33:50.540Z,5.55
2018-03-16T17:36:18.241Z,1.90
2018-03-16T17:38:45.926Z,3.33
2018-03-16T17:41:13.736Z,2.58
2018-03-16T17:43:41.438Z,9.63
2018-03-16T17:46:09.145Z,1.15
2018-03-16T17:48:36.842Z,8.07
2018-03-16T17:51:04.592Z,2.12
2018-03-16T17:53:32.294Z,3.15
2018-03-16T17:56:00.024Z,5.45
2018-03-16T17:58:27.736Z,20.83
2018-03-16T18:00:55.504Z,2.35
2018-03-16T18:03:23.189Z,1.20
2018-03-16T18:05:51.005Z,3.22
2018-03-16T18:08:18.690Z,2.70
2018-03-16T18:10:46.413Z,1.80
2018-03-16T18:13:14.177Z,4.90
2018-03-16T18:15:41.983Z,5.07
2018-03-16T18:18:09.855Z,1.60
2018-03-16T18:20:37.597Z,1.52
2018-03-16T18:23:05.383Z,2.47
2018-03-16T18:25:33.190Z,1.60
2018-03-16T18:28:00.982Z,5.03
2018-03-16T18:30:28.677Z,1.62
2018-03-16T18:32:56.394Z,9.15
2018-03-16T18:35:24.081Z,1.52
2018-03-16T18:37:51.841Z,3.80
2018-03-16T18:40:19.524Z,2.90
2018-03-16T18:42:47.224Z,3.60
2018-03-16T18:45:14.905Z,5.43
2018-03-16T18:47:42.582Z,2.22
2018-03-16T18:50:10.284Z,2.20
2018-03-16T18:52:37.964Z,3.62
2018-03-16T18:55:05.674Z,10.38
2018-03-16T18:57:33.357Z,3.92
2018-03-16T19:00:01.113Z,11.10
2018-03-16T19:02:28.802Z,4.72
2018-03-16T19:04:56.538Z,2.35
2018-03-16T19:07:24.310Z,3.75
2018-03-16T19:09:52.013Z,2.90
2018-03-16T19:12:19.737Z,2.28
2018-03-16T19:14:47.442Z,1.40
2018-03-16T19:17:15.160Z,2.83
2018-03-16T19:19:42.925Z,2.40
2018-03-16T19:22:10.697Z,3.05
2018-03-16T19:24:38.374Z,2.78
2018-03-16T19:27:06.085Z,2.80
2018-03-16T19:29:33.789Z,1.73
2018-03-16T19:32:01.493Z,1.87
2018-03-16T19:34:29.219Z,4.70
2018-03-16T19:36:56.925Z,3.28
2018-03-16T19:39:24.607Z,1.67
2018-03-16T19:41:52.321Z,2.22
2018-03-16T19:44:20.010Z,1.60
2018-03-16T19:46:47.716Z,1.10
2018-03-16T19:49:15.508Z,2.35
2018-03-16T19:51:43.196Z,1.85
2018-03-16T19:54:10.936Z,1.85
2018-03-16T19:56:38.694Z,2.47
2018-03-16T19:59:06.403Z,2.00
2018-03-16T20:01:34.129Z,4.70
2018-03-16T20:04:01.894Z,1.40
2018-03-16T20:06:29.585Z,3.47
2018-03-16T20:08:57.305Z,2.05
2018-03-16T20:11:25.089Z,1.87
2018-03-16T20:13:52.853Z,8.60
2018-03-16T20:16:20.617Z,2.50
2018-03-16T20:18:48.384Z,2.08
2018-03-16T20:21:16.065Z,1.92
2018-03-16T20:23:43.807Z,2.42
2018-03-16T20:26:11.488Z,2.17
2018-03-16T20:28:39.245Z,16.55
2018-03-16T20:31:06.954Z,1.85
2018-03-16T20:33:34.636Z,1.87
2018-03-16T20:36:02.349Z,2.05
2018-03-16T20:38:30.101Z,1.75
2018-03-16T20:40:57.822Z,2.37
2018-03-16T20:43:25.538Z,2.20
2018-03-16T20:45:53.249Z,2.15
2018-03-16T20:48:20.960Z,3.78
2018-03-16T20:50:48.669Z,3.33
2018-03-16T20:53:16.392Z,1.83
2018-03-16T20:55:44.133Z,2.37
2018-03-16T20:58:11.818Z,4.75
2018-03-16T21:00:39.532Z,2.10
2018-03-16T21:03:07.212Z,1.20
2018-03-16T21:05:35.015Z,2.05
2018-03-16T21:08:02.778Z,2.30
2018-03-16T21:10:30.465Z,2.40
2018-03-16T21:12:58.168Z,1.85
2018-03-16T21:15:25.864Z,3.15
2018-03-16T21:17:53.564Z,2.60
2018-03-16T21:20:21.240Z,2.03
2018-03-16T21:22:48.965Z,4.57
2018-03-16T21:25:16.650Z,1.37
2018-03-16T21:27:44.352Z,3.95
2018-03-16T21:30:12.040Z,2.33
2018-03-16T21:32:39.824Z,2.40
2018-03-16T21:35:07.518Z,1.92
2018-03-16T21:37:35.273Z,4.35
2018-03-16T21:40:02.953Z,1.23
2018-03-16T21:42:30.676Z,6.57
2018-03-16T21:44:58.445Z,1.25
2018-03-16T21:47:26.149Z,2.20
2018-03-16T21:49:53.874Z,10.82
2018-03-16T21:52:21.641Z,7.07
2018-03-16T21:54:49.405Z,3.83
2018-03-16T21:57:17.178Z,3.72
2018-03-16T21:59:44.884Z,1.50
2018-03-16T22:02:12.601Z,1.83
2018-03-16T22:04:40.309Z,3.15
2018-03-16T22:07:07.988Z,1.67
2018-03-16T22:09:35.692Z,2.20
2018-03-16T22:12:03.375Z,3.22
2018-03-16T22:14:31.089Z,16.55
2018-03-16T22:16:58.776Z,6.12
2018-03-16T22:19:26.481Z,3.40
2018-03-16T22:21:54.988Z,2.35
2018-03-16T22:24:22.703Z,3.45
2018-03-16T22:26:50.461Z,1.70
2018-03-16T22:29:18.178Z,6.28
2018-03-16T22:31:45.856Z,1.90
2018-03-16T22:34:13.536Z,1.60
2018-03-16T22:36:41.239Z,1.58
2018-03-16T22:39:08.929Z,1.67
2018-03-16T22:41:36.640Z,2.37
2018-03-16T22:44:04.412Z,3.65
2018-03-16T22:46:32.181Z,2.42
2018-03-16T22:48:59.946Z,2.95
2018-03-16T22:51:27.704Z,3.08
2018-03-16T22:53:55.385Z,1.60
2018-03-16T22:56:23.088Z,2.58
2018-03-16T22:58:50.805Z,2.30
2018-03-16T23:01:18.572Z,2.80
2018-03-16T23:03:46.261Z,4.43
2018-03-16T23:06:13.997Z,1.50
2018-03-16T23:08:41.681Z,5.68
2018-03-16T23:11:09.524Z,2.00
2018-03-16T23:13:37.216Z,14.23
2018-03-16T23:16:04.949Z,2.03
2018-03-16T23:18:32.656Z,1.62
2018-03-16T23:21:00.341Z,2.25
2018-03-16T23:23:28.042Z,4.05
2018-03-16T23:25:55.817Z,2.22
2018-03-16T23:28:23.528Z,2.17
2018-03-16T23:30:51.204Z,3.17
2018-03-16T23:33:18.912Z,1.75
2018-03-16T23:35:46.600Z,2.30
2018-03-16T23:38:14.313Z,2.58
2018-03-16T23:40:41.998Z,2.05
2018-03-16T23:43:09.728Z,2.50
2018-03-16T23:45:37.428Z,2.20
2018-03-16T23:48:05.144Z,6.47
2018-03-16T23:50:32.830Z,1.70
2018-03-16T23:53:00.616Z,2.85
2018-03-16T23:55:28.389Z,2.45
2018-03-16T23:57:56.074Z,2.65
